Time;durP1;ratioP1;P1;durP2;ratioP2;P2;SDS_P1;SDS_P2;PMS_P1;PMS_P2;Temp;Humidity;BMP_temperature;BMP_pressure;BME280_temperature;BME280_humidity;BME280_pressure;Samples;Min_cycle;Max_cycle;Signal;HPM_P1;HPM_P2
2023/06/09 00:00:49;;;;;;;5.07;2.97;;;;;;;18.85;71.37;100948.88;5032130;28;20406;-90
2023/06/09 00:03:16;;;;;;;4.00;2.78;;;;;;;18.83;71.10;100952.56;5032008;28;20025;-89
2023/06/09 00:05:42;;;;;;;7.53;3.20;;;;;;;18.80;71.62;100972.00;5031902;28;20064;-89
2023/06/09 00:08:08;;;;;;;4.10;2.78;;;;;;;18.78;72.17;100973.06;5032062;28;20053;-90
2023/06/09 00:10:33;;;;;;;4.10;2.95;;;;;;;18.73;72.34;100973.44;5033025;28;20502;-89
2023/06/09 00:13:00;;;;;;;7.22;3.15;;;;;;;18.77;72.57;100977.47;5031947;28;20040;-90
2023/06/09 00:15:25;;;;;;;3.75;2.92;;;;;;;18.79;72.09;100985.22;5032009;28;20029;-88
2023/06/09 00:17:53;;;;;;;4.55;3.17;;;;;;;18.69;72.11;100968.56;5015811;28;20037;-89
2023/06/09 00:20:19;;;;;;;9.65;3.28;;;;;;;18.79;72.28;100972.13;5031792;28;20033;-89
2023/06/09 00:22:45;;;;;;;6.95;3.30;;;;;;;18.86;71.92;100975.91;5015509;28;20029;-90
2023/06/09 00:25:15;;;;;;;6.32;3.58;;;;;;;18.84;72.14;100972.59;5015128;28;20037;-90
2023/06/09 00:27:40;;;;;;;4.68;3.35;;;;;;;18.88;71.66;100976.66;5015931;28;20109;-90
2023/06/09 00:30:07;;;;;;;4.63;3.47;;;;;;;18.91;71.73;100981.66;5015302;28;20030;-90
2023/06/09 00:32:33;;;;;;;4.88;3.20;;;;;;;18.89;71.93;100973.91;5015270;28;20411;-89
2023/06/09 00:34:58;;;;;;;5.15;3.28;;;;;;;18.88;72.11;100979.28;5031490;28;20029;-89
2023/06/09 00:37:24;;;;;;;6.45;3.50;;;;;;;18.93;71.88;100984.97;4998706;28;20025;-89
2023/06/09 00:39:50;;;;;;;4.60;3.35;;;;;;;18.85;72.18;100969.00;5014830;28;20553;-90
2023/06/09 00:42:15;;;;;;;5.78;3.50;;;;;;;18.77;71.93;100960.91;4998699;28;20033;-89
2023/06/09 00:44:40;;;;;;;7.28;3.72;;;;;;;18.69;72.24;100979.03;5014996;28;20087;-89
2023/06/09 00:47:07;;;;;;;5.55;2.92;;;;;;;18.63;72.73;100975.88;5031236;28;20072;-89
2023/06/09 00:49:33;;;;;;;4.40;3.17;;;;;;;18.65;72.80;100972.34;5015212;28;20483;-89
2023/06/09 00:51:58;;;;;;;5.80;3.47;;;;;;;18.63;72.85;100970.66;5014437;28;20034;-89
2023/06/09 00:54:24;;;;;;;4.95;3.10;;;;;;;18.63;72.22;100970.66;5014808;28;20049;-91
2023/06/09 00:56:50;;;;;;;4.22;3.10;;;;;;;18.53;72.45;100953.97;5031203;28;20037;-89
2023/06/09 00:59:15;;;;;;;4.50;3.63;;;;;;;18.55;72.81;100957.31;5031392;28;20120;-90
2023/06/09 01:01:43;;;;;;;7.60;3.30;;;;;;;18.60;72.71;100963.03;5014516;28;20037;-90
2023/06/09 01:04:08;;;;;;;4.22;3.22;;;;;;;18.51;72.90;100966.38;5014994;28;20108;-89
2023/06/09 01:07:00;;;;;;;5.72;3.38;;;;;;;18.54;72.70;100971.34;5014690;28;20542;-91
2023/06/09 01:09:29;;;;;;;5.22;3.53;;;;;;;18.53;72.69;100956.59;5014790;28;20041;-89
2023/06/09 01:12:20;;;;;;;6.75;3.53;;;;;;;18.52;73.08;100969.81;5014816;28;20091;-91
2023/06/09 01:14:56;;;;;;;4.15;3.15;;;;;;;18.52;72.72;100951.47;5030387;28;20056;-89
2023/06/09 01:17:23;;;;;;;4.45;2.90;;;;;;;18.55;72.89;100962.53;5014861;28;20450;-90
2023/06/09 01:19:51;;;;;;;6.88;3.58;;;;;;;18.48;72.81;100952.66;5014478;28;20095;-89
2023/06/09 01:22:37;;;;;;;5.70;3.20;;;;;;;18.51;73.00;100955.06;5013962;28;20087;-90
2023/06/09 01:25:20;;;;;;;6.38;3.13;;;;;;;18.54;73.07;100960.88;5030660;28;20124;-90
2023/06/09 01:27:46;;;;;;;10.80;3.80;;;;;;;18.54;73.09;100954.81;5030854;28;20033;-91
2023/06/09 01:30:12;;;;;;;4.25;3.20;;;;;;;18.66;72.71;100950.44;5014192;28;20506;-90
2023/06/09 01:32:41;;;;;;;6.03;3.38;;;;;;;18.50;72.86;100922.78;5014109;28;20025;-90
2023/06/09 01:35:07;;;;;;;5.50;3.05;;;;;;;18.66;72.96;100947.81;5014004;28;20510;-90
2023/06/09 01:37:32;;;;;;;5.88;3.50;;;;;;;18.62;72.88;100941.94;5013931;28;20100;-90
2023/06/09 01:39:57;;;;;;;5.57;3.80;;;;;;;18.63;72.96;100948.84;5014194;28;20036;-90
2023/06/09 01:42:24;;;;;;;9.65;3.72;;;;;;;18.63;73.39;100951.47;5013824;28;20044;-90
2023/06/09 01:44:49;;;;;;;4.90;3.33;;;;;;;18.68;73.30;100956.38;5013932;28;20480;-91
2023/06/09 01:47:18;;;;;;;4.30;3.40;;;;;;;18.63;73.39;100949.69;4997316;28;20045;-91
2023/06/09 01:49:55;;;;;;;6.30;3.50;;;;;;;18.59;73.70;100961.38;4998317;28;20040;-89
2023/06/09 01:52:24;;;;;;;3.70;3.15;;;;;;;18.63;73.50;100954.94;5030284;28;20033;-90
2023/06/09 01:54:55;;;;;;;4.03;3.33;;;;;;;18.60;73.14;100949.94;5014344;28;20024;-89
2023/06/09 01:57:26;;;;;;;6.03;3.80;;;;;;;18.62;73.23;100950.66;4997862;28;20025;-91
2023/06/09 01:59:57;;;;;;;5.65;3.83;;;;;;;18.59;73.28;100952.69;5014325;28;20030;-91
2023/06/09 02:02:24;;;;;;;4.30;3.25;;;;;;;18.52;73.83;100957.53;5013935;28;20030;-90
2023/06/09 02:04:50;;;;;;;4.88;3.53;;;;;;;18.43;74.39;100953.00;4997155;28;20033;-89
2023/06/09 02:07:16;;;;;;;5.05;3.60;;;;;;;18.35;74.31;100944.91;5013911;28;20087;-88
2023/06/09 02:09:44;;;;;;;5.80;3.10;;;;;;;18.43;74.58;100963.50;5013830;28;20026;-90
2023/06/09 02:12:09;;;;;;;7.72;3.55;;;;;;;18.32;74.97;100950.38;5013783;28;20120;-91
2023/06/09 02:14:35;;;;;;;7.88;4.15;;;;;;;18.35;74.83;100955.38;5013987;28;20156;-89
2023/06/09 02:17:02;;;;;;;6.72;3.70;;;;;;;18.35;74.66;100945.72;5030140;28;20034;-91
2023/06/09 02:19:28;;;;;;;5.97;3.78;;;;;;;18.33;75.62;100962.53;5013565;28;20029;-89
2023/06/09 02:21:54;;;;;;;5.13;3.40;;;;;;;18.31;75.33;100959.19;5013691;28;20080;-89
2023/06/09 02:24:20;;;;;;;5.25;3.47;;;;;;;18.37;75.33;100957.88;5013785;28;20048;-89
2023/06/09 02:26:49;;;;;;;5.88;3.40;;;;;;;18.39;75.31;100956.81;5015124;28;20521;-91
2023/06/09 02:29:15;;;;;;;4.82;3.72;;;;;;;18.55;74.99;100966.94;5017775;28;20398;-89
2023/06/09 02:31:41;;;;;;;4.80;3.13;;;;;;;18.47;74.55;100953.59;5034095;28;20025;-89
2023/06/09 02:34:06;;;;;;;5.05;3.25;;;;;;;18.59;74.33;100963.16;5033601;28;20450;-90
2023/06/09 02:36:32;;;;;;;5.35;3.55;;;;;;;18.54;74.33;100953.00;5033707;28;20033;-89
2023/06/09 02:38:57;;;;;;;4.68;3.25;;;;;;;18.53;74.11;100953.97;5017376;28;20033;-90
2023/06/09 02:41:23;;;;;;;5.03;3.58;;;;;;;18.39;74.13;100941.13;5033853;28;20080;-89
2023/06/09 02:43:48;;;;;;;10.43;4.03;;;;;;;18.50;74.47;100954.22;5033741;28;20030;-90
2023/06/09 02:46:17;;;;;;;5.68;3.85;;;;;;;18.60;74.56;100960.41;5000697;28;20033;-89
2023/06/09 02:48:42;;;;;;;6.60;4.38;;;;;;;18.69;74.28;100963.31;5017593;28;20083;-89
2023/06/09 02:51:07;;;;;;;5.70;4.45;;;;;;;18.77;73.64;100971.38;5033898;28;20765;-91
2023/06/09 02:53:33;;;;;;;6.00;4.13;;;;;;;18.67;73.86;100966.03;5000931;28;20025;-91
2023/06/09 02:55:58;;;;;;;4.53;3.60;;;;;;;18.65;74.54;100964.47;5034762;28;20025;-89
2023/06/09 02:58:24;;;;;;;7.28;4.38;;;;;;;18.78;74.58;100986.16;5033786;28;20419;-90
2023/06/09 03:00:50;;;;;;;8.95;4.35;;;;;;;18.79;73.92;100986.06;5000316;28;20053;-90
2023/06/09 03:03:17;;;;;;;5.28;4.07;;;;;;;18.64;74.23;100974.09;5000191;28;20411;-89
2023/06/09 03:05:43;;;;;;;9.40;4.22;;;;;;;18.72;74.38;100984.03;5032902;28;20065;-88
2023/06/09 03:08:09;;;;;;;5.50;3.90;;;;;;;18.67;74.31;100980.91;5016485;28;20083;-87
2023/06/09 03:10:35;;;;;;;5.82;4.07;;;;;;;18.75;74.15;100989.03;5015982;28;20021;-88
2023/06/09 03:13:00;;;;;;;5.68;4.13;;;;;;;18.72;74.59;100990.09;4999719;28;20091;-88
2023/06/09 03:15:25;;;;;;;6.65;4.18;;;;;;;18.82;73.99;100980.56;5015850;28;20026;-87
2023/06/09 03:17:51;;;;;;;6.40;4.65;;;;;;;18.81;74.09;100993.81;5032267;28;20029;-87
2023/06/09 03:20:19;;;;;;;5.13;3.70;;;;;;;18.82;74.07;100980.56;5015993;28;20025;-87
2023/06/09 03:22:45;;;;;;;7.40;4.38;;;;;;;18.88;74.70;101001.09;5016382;28;20040;-87
2023/06/09 03:25:11;;;;;;;7.53;4.13;;;;;;;18.94;74.00;100993.69;5015922;28;20025;-88
2023/06/09 03:27:36;;;;;;;8.07;4.13;;;;;;;18.84;73.77;100972.59;5015792;28;20033;-87
2023/06/09 03:30:03;;;;;;;6.25;4.13;;;;;;;18.97;74.43;100999.50;5032324;28;20046;-88
2023/06/09 03:32:28;;;;;;;11.43;4.18;;;;;;;18.95;74.21;101000.59;4999154;28;20056;-88
2023/06/09 03:34:53;;;;;;;6.63;4.22;;;;;;;18.92;74.67;100996.41;4972340;28;20455;-87
2023/06/09 03:37:19;;;;;;;5.25;3.83;;;;;;;18.87;74.21;100986.28;5012205;28;20029;-87
2023/06/09 03:39:44;;;;;;;5.57;3.85;;;;;;;18.85;75.45;100995.22;4978400;28;20083;-87
2023/06/09 03:42:10;;;;;;;5.55;3.97;;;;;;;19.11;73.55;100991.41;4995368;28;20026;-88
2023/06/09 03:44:35;;;;;;;6.22;3.83;;;;;;;19.15;73.96;101000.69;5011776;28;20034;-88
2023/06/09 03:47:01;;;;;;;9.50;4.40;;;;;;;19.11;73.74;100990.56;5011692;28;20054;-88
2023/06/09 03:49:26;;;;;;;4.80;3.85;;;;;;;19.09;75.71;101000.34;4995842;28;20030;-91
2023/06/09 03:51:52;;;;;;;6.40;3.97;;;;;;;19.09;74.54;101003.81;4996329;28;20029;-90
2023/06/09 03:54:17;;;;;;;6.35;4.40;;;;;;;19.13;74.22;100997.34;5013096;28;20060;-90
2023/06/09 03:56:42;;;;;;;12.15;4.43;;;;;;;19.16;73.85;100988.41;4997412;28;20565;-92
2023/06/09 03:59:08;;;;;;;10.77;5.20;;;;;;;19.26;74.22;101004.25;5000727;28;20034;-94
2023/06/09 04:01:33;;;;;;;8.25;5.00;;;;;;;19.27;73.29;100998.03;4982200;28;20036;-92
2023/06/09 04:03:59;;;;;;;5.65;4.15;;;;;;;19.56;72.77;101004.44;4984603;28;20069;-93
2023/06/09 04:06:26;;;;;;;9.05;4.40;;;;;;;19.81;71.52;101005.09;5016205;28;20030;-94
2023/06/09 04:08:51;;;;;;;5.30;3.78;;;;;;;19.77;72.07;101010.59;4999385;28;20025;-93
2023/06/09 04:11:17;;;;;;;11.07;7.18;;;;;;;19.64;71.99;101015.16;4999693;28;20541;-92
2023/06/09 04:13:42;;;;;;;14.63;7.95;;;;;;;19.62;71.47;101005.75;5011819;28;20058;-93
2023/06/09 04:16:08;;;;;;;7.70;5.18;;;;;;;19.60;72.28;101011.13;5002408;28;20030;-91
2023/06/09 04:18:33;;;;;;;13.48;4.93;;;;;;;19.57;71.87;101005.31;4994754;28;20676;-87
2023/06/09 04:20:59;;;;;;;6.35;4.50;;;;;;;19.47;72.31;101008.63;5003139;28;20034;-87
2023/06/09 04:23:27;;;;;;;7.57;4.75;;;;;;;19.46;72.78;101011.34;5010084;28;20034;-91
2023/06/09 04:25:53;;;;;;;7.15;4.65;;;;;;;19.45;72.36;101012.31;5010549;28;20185;-93
2023/06/09 04:28:18;;;;;;;10.15;4.88;;;;;;;19.46;72.57;101013.97;4980434;28;20555;-87
2023/06/09 04:30:44;;;;;;;9.23;4.15;;;;;;;19.45;72.61;101017.56;5021296;28;20030;-90
2023/06/09 04:33:09;;;;;;;7.75;5.03;;;;;;;19.43;72.47;101016.88;5012785;28;20034;-92
2023/06/09 04:35:40;;;;;;;9.90;4.82;;;;;;;19.43;72.65;101022.09;5015183;28;20041;-91
2023/06/09 04:38:07;;;;;;;17.20;5.10;;;;;;;19.29;73.05;100996.16;5006498;28;20010;-91
2023/06/09 04:40:32;;;;;;;9.50;5.03;;;;;;;19.35;72.56;101012.22;5004051;28;20049;-89
2023/06/09 04:42:59;;;;;;;7.55;4.78;;;;;;;19.36;72.96;101023.53;4980033;28;20436;-89
2023/06/09 04:45:27;;;;;;;7.68;4.40;;;;;;;19.38;72.87;101013.78;4977354;28;20033;-90
2023/06/09 04:47:59;;;;;;;7.45;4.63;;;;;;;19.41;72.66;101024.03;5010277;28;20038;-90
2023/06/09 04:50:33;;;;;;;6.25;4.88;;;;;;;19.27;72.50;101003.28;4999055;28;20117;-92
2023/06/09 04:53:07;;;;;;;7.50;5.03;;;;;;;19.33;73.33;101018.56;5010103;28;20039;-90
2023/06/09 04:55:33;;;;;;;9.68;5.03;;;;;;;19.34;73.37;101022.84;4997151;28;20057;-94
2023/06/09 04:57:59;;;;;;;12.27;5.68;;;;;;;19.37;72.48;101022.59;4997911;28;20025;-92
2023/06/09 05:00:26;;;;;;;6.85;4.97;;;;;;;19.32;72.13;101022.13;5007423;28;20046;-95
2023/06/09 05:02:53;;;;;;;7.68;4.88;;;;;;;19.41;72.17;101037.16;4994684;28;20053;-91
2023/06/09 05:05:19;;;;;;;6.28;4.72;;;;;;;19.31;73.41;101025.72;5001744;28;20029;-94
2023/06/09 05:07:44;;;;;;;13.68;5.20;;;;;;;19.42;73.31;101042.28;5019123;28;20029;-91
2023/06/09 05:10:10;;;;;;;10.48;5.18;;;;;;;19.35;73.53;101033.22;5000481;28;20034;-89
2023/06/09 05:12:45;;;;;;;6.68;4.65;;;;;;;19.36;73.33;101031.41;5109074;27;20398;-93
2023/06/09 05:15:11;;;;;;;9.27;4.43;;;;;;;19.41;72.41;101029.28;5091604;28;20055;-94
2023/06/09 05:17:41;;;;;;;10.70;4.35;;;;;;;19.32;71.44;101040.50;5112170;28;20042;-94
2023/06/09 05:20:10;;;;;;;6.38;4.60;;;;;;;19.31;71.68;101044.06;5078765;28;20028;-92
2023/06/09 05:22:36;;;;;;;7.30;4.85;;;;;;;19.34;71.55;101046.44;5107269;28;20028;-89
2023/06/09 05:25:02;;;;;;;6.63;4.80;;;;;;;19.43;70.83;101043.09;5092118;28;20036;-91
2023/06/09 05:27:28;;;;;;;7.88;4.50;;;;;;;19.49;68.72;101042.63;5104636;28;20485;-93
2023/06/09 05:29:53;;;;;;;9.70;4.20;;;;;;;19.41;66.59;101032.72;5108834;28;20035;-93
2023/06/09 05:32:19;;;;;;;13.18;4.50;;;;;;;19.48;65.80;101033.09;5111284;28;20390;-90
2023/06/09 05:34:44;;;;;;;7.13;5.13;;;;;;;19.45;64.22;101028.06;5089459;28;20108;-88
2023/06/09 05:37:13;;;;;;;6.88;5.10;;;;;;;19.57;67.15;101019.25;5105959;28;20035;-91
2023/06/09 05:39:39;;;;;;;8.57;5.00;;;;;;;19.56;64.63;101014.94;5057368;28;20049;-86
2023/06/09 05:42:07;;;;;;;7.70;4.75;;;;;;;19.58;64.43;101025.34;5068026;28;20028;-94
2023/06/09 05:44:32;;;;;;;9.02;4.93;;;;;;;19.65;64.45;101022.06;5053395;28;20044;-94
2023/06/09 05:46:58;;;;;;;9.63;4.47;;;;;;;19.60;64.33;101015.56;5065790;28;20033;-87
2023/06/09 05:49:23;;;;;;;5.97;4.30;;;;;;;19.86;64.64;101029.16;5062112;28;20055;-88
2023/06/09 05:51:49;;;;;;;7.13;4.53;;;;;;;19.77;64.81;101044.72;5046594;28;20091;-92
2023/06/09 05:54:14;;;;;;;7.30;4.97;;;;;;;19.67;65.26;101043.81;5044421;28;20033;-88
2023/06/09 05:56:40;;;;;;;7.90;4.60;;;;;;;19.59;65.43;101027.84;5058981;28;20041;-91
2023/06/09 05:59:05;;;;;;;9.57;4.32;;;;;;;19.78;64.14;101050.81;5046632;28;20560;-91
2023/06/09 06:01:31;;;;;;;10.82;5.10;;;;;;;19.77;63.87;101057.88;5028140;28;20056;-89
2023/06/09 06:03:56;;;;;;;6.72;4.47;;;;;;;19.79;63.00;101064.78;5028173;28;20029;-90
2023/06/09 06:06:22;;;;;;;7.50;3.90;;;;;;;19.79;61.60;101049.84;5043658;28;20040;-91
2023/06/09 06:08:47;;;;;;;7.60;4.10;;;;;;;20.03;61.12;101057.53;5043977;28;20343;-92
2023/06/09 06:11:13;;;;;;;5.50;3.88;;;;;;;20.19;60.53;101051.84;5043949;28;20171;-90
2023/06/09 06:13:38;;;;;;;9.07;4.00;;;;;;;20.41;60.20;101048.28;5060188;28;20036;-85
2023/06/09 06:16:04;;;;;;;7.60;4.18;;;;;;;20.52;60.30;101054.31;5046896;28;20090;-93
2023/06/09 06:18:30;;;;;;;7.43;4.47;;;;;;;20.74;59.80;101058.59;5045734;28;20041;-94
2023/06/09 06:20:56;;;;;;;7.38;4.38;;;;;;;20.78;60.19;101046.88;5046003;28;20486;-88
2023/06/09 06:23:21;;;;;;;9.50;4.60;;;;;;;20.88;60.16;101053.00;5034597;28;20032;-93
2023/06/09 06:25:47;;;;;;;10.65;4.22;;;;;;;20.88;60.19;101036.41;5017282;28;20025;-94
2023/06/09 06:28:13;;;;;;;5.75;4.05;;;;;;;21.00;60.24;101042.41;5016361;28;20052;-94
2023/06/09 06:30:38;;;;;;;7.35;4.40;;;;;;;20.98;60.14;101046.97;5033626;28;20410;-86
2023/06/09 06:33:04;;;;;;;6.88;4.45;;;;;;;21.10;60.08;101030.13;5032846;28;20029;-89
2023/06/09 06:35:42;;;;;;;7.10;4.13;;;;;;;21.30;60.39;101045.03;5019818;28;20033;-94
2023/06/09 06:38:07;;;;;;;8.80;4.97;;;;;;;21.38;59.88;101036.47;5035790;28;20034;-94
2023/06/09 06:40:33;;;;;;;7.15;4.95;;;;;;;21.58;59.42;101048.69;5005975;28;20132;-92
2023/06/09 06:42:58;;;;;;;5.65;4.28;;;;;;;21.55;59.28;101038.44;5030078;28;20068;-92
2023/06/09 06:45:26;;;;;;;10.93;4.80;;;;;;;21.52;59.83;101045.78;5031453;28;20676;-91
2023/06/09 06:47:53;;;;;;;6.75;4.60;;;;;;;21.54;58.97;101049.13;5046083;28;20116;-89
2023/06/09 06:50:18;;;;;;;5.70;4.30;;;;;;;21.63;58.29;101050.91;5031367;28;20514;-94
2023/06/09 06:52:44;;;;;;;8.38;5.03;;;;;;;21.47;57.52;101041.75;5034742;28;20028;-88
2023/06/09 06:55:10;;;;;;;8.45;4.47;;;;;;;21.45;57.80;101043.69;5029735;28;20026;-92
2023/06/09 06:57:35;;;;;;;8.77;4.15;;;;;;;21.41;57.77;101044.91;5029647;28;20026;-94
2023/06/09 07:00:08;;;;;;;8.07;4.43;;;;;;;21.42;57.30;101036.06;5028722;28;20092;-90
2023/06/09 07:02:33;;;;;;;;;;;;;;;21.47;57.95;101049.66;5048492;28;20033;-90
2023/06/09 07:04:59;;;;;;;5.85;4.15;;;;;;;21.48;58.25;101040.78;5029621;28;19917;-89
2023/06/09 07:07:26;;;;;;;7.53;4.30;;;;;;;21.61;58.29;101048.41;5030368;28;20152;-90
2023/06/09 07:09:51;;;;;;;7.07;4.70;;;;;;;21.80;57.77;101042.34;5031182;28;20029;-87
2023/06/09 07:12:16;;;;;;;9.38;4.97;;;;;;;21.56;56.76;101015.59;5042500;28;20107;-88
2023/06/09 07:14:42;;;;;;;8.95;6.40;;;;;;;21.76;57.65;101054.97;5016987;28;20072;-94
2023/06/09 07:17:07;;;;;;;7.18;5.18;;;;;;;21.90;57.63;101045.81;5032715;28;20030;-93
2023/06/09 07:19:35;;;;;;;6.63;4.80;;;;;;;21.91;57.99;101042.22;5014644;28;20124;-93
2023/06/09 07:22:01;;;;;;;7.35;5.00;;;;;;;22.08;57.60;101047.81;5033632;28;20044;-91
2023/06/09 07:24:26;;;;;;;6.93;4.35;;;;;;;22.33;58.81;101052.50;5047669;28;20120;-89
2023/06/09 07:26:53;;;;;;;6.57;4.47;;;;;;;22.30;56.29;101058.88;5030060;28;20041;-90
2023/06/09 07:29:18;;;;;;;7.65;4.18;;;;;;;22.15;56.67;101038.38;5047868;28;20025;-87
2023/06/09 07:31:44;;;;;;;6.93;4.30;;;;;;;22.22;57.16;101048.22;5013299;28;20044;-87
2023/06/09 07:34:10;;;;;;;6.88;4.53;;;;;;;22.36;57.29;101068.03;5043448;28;20593;-86
2023/06/09 07:36:37;;;;;;;6.07;4.45;;;;;;;22.42;57.35;101062.22;5028872;28;20127;-87
2023/06/09 07:39:04;;;;;;;8.35;4.93;;;;;;;22.47;56.63;101051.22;5043858;28;20086;-86
2023/06/09 07:41:30;;;;;;;6.50;4.68;;;;;;;22.52;55.90;101063.03;5029533;28;20024;-87
2023/06/09 07:43:56;;;;;;;10.30;4.35;;;;;;;22.45;53.11;101054.00;5038251;28;20112;-88
2023/06/09 07:46:22;;;;;;;8.18;4.03;;;;;;;22.48;54.32;101058.16;5027146;28;20130;-94
2023/06/09 07:48:49;;;;;;;9.73;4.10;;;;;;;22.55;53.95;101060.09;5009883;28;20099;-88
2023/06/09 07:51:16;;;;;;;5.28;3.67;;;;;;;22.66;54.02;101066.19;5016833;28;20103;-94
2023/06/09 07:53:42;;;;;;;6.80;4.10;;;;;;;22.74;52.52;101072.41;5020011;28;20521;-94
2023/06/09 07:56:26;;;;;;;5.50;3.78;;;;;;;22.67;52.70;101066.03;5050710;28;20037;-91
2023/06/09 07:58:52;;;;;;;8.68;4.38;;;;;;;22.67;52.25;101037.03;5031300;28;20087;-88
2023/06/09 08:01:17;;;;;;;7.13;4.00;;;;;;;22.81;51.74;101054.19;5030626;28;20034;-92
2023/06/09 08:03:43;;;;;;;5.97;4.35;;;;;;;23.03;51.77;101060.97;5044697;28;20487;-89
2023/06/09 08:06:09;;;;;;;7.78;4.00;;;;;;;23.10;50.59;101060.22;5045264;28;20099;-89
2023/06/09 08:08:35;;;;;;;8.88;4.75;;;;;;;23.23;51.58;101053.78;5029275;28;20324;-88
2023/06/09 08:11:01;;;;;;;8.13;4.85;;;;;;;23.33;50.95;101052.75;5043894;28;20095;-88
2023/06/09 08:13:27;;;;;;;8.88;5.32;;;;;;;23.41;52.01;101054.69;5011971;28;20028;-92
2023/06/09 08:15:53;;;;;;;13.55;5.32;;;;;;;23.61;51.62;101047.50;5044841;28;20089;-92
2023/06/09 08:18:19;;;;;;;9.02;4.63;;;;;;;23.59;50.36;101044.97;5014142;28;20034;-84
2023/06/09 08:20:44;;;;;;;7.93;4.97;;;;;;;23.60;51.06;101041.38;5008558;28;20026;-87
2023/06/09 08:23:10;;;;;;;5.93;4.20;;;;;;;23.66;50.77;101059.25;5009127;28;20026;-88
2023/06/09 08:25:36;;;;;;;11.30;5.25;;;;;;;23.62;50.85;101043.88;5037468;28;20026;-88
2023/06/09 08:28:02;;;;;;;8.10;4.90;;;;;;;23.52;51.20;101040.44;5029210;28;20037;-86
2023/06/09 08:30:27;;;;;;;8.30;5.20;;;;;;;23.60;52.19;101057.22;5028474;28;20038;-87
2023/06/09 08:32:53;;;;;;;6.88;4.63;;;;;;;23.78;50.28;101044.00;5029425;28;20088;-88
2023/06/09 08:35:18;;;;;;;6.97;4.13;;;;;;;24.04;49.60;101038.81;5043288;28;20087;-86
2023/06/09 08:37:44;;;;;;;6.03;4.43;;;;;;;24.13;49.99;101051.13;5027946;28;20029;-85
2023/06/09 08:40:10;;;;;;;8.35;4.40;;;;;;;24.21;48.74;101051.19;5026881;28;20083;-88
2023/06/09 08:42:35;;;;;;;7.60;4.80;;;;;;;24.28;49.40;101036.34;5026053;28;20032;-88
2023/06/09 08:45:05;;;;;;;7.18;4.60;;;;;;;24.59;49.23;101043.88;5043004;28;20106;-90
2023/06/09 08:47:32;;;;;;;9.13;4.10;;;;;;;24.82;49.66;101044.19;5052344;28;20060;-91
2023/06/09 08:49:59;;;;;;;5.75;4.53;;;;;;;24.97;47.26;101042.59;5065504;28;20074;-91
2023/06/09 08:52:25;;;;;;;6.60;5.07;;;;;;;25.06;47.17;101035.53;5028923;28;20026;-87
2023/06/09 08:54:51;;;;;;;6.50;4.60;;;;;;;25.19;46.87;101038.59;5029889;28;20085;-92
2023/06/09 08:57:18;;;;;;;5.75;4.15;;;;;;;25.24;46.36;101028.34;5067522;28;20112;-91
2023/06/09 08:59:44;;;;;;;6.00;4.57;;;;;;;25.39;46.33;101025.91;5062842;28;20064;-90
2023/06/09 09:02:10;;;;;;;7.55;4.15;;;;;;;25.39;47.52;101025.91;5043744;28;20036;-93
2023/06/09 09:04:38;;;;;;;7.20;4.35;;;;;;;25.36;46.15;101010.31;5032036;28;20021;-92
2023/06/09 09:07:05;;;;;;;6.15;4.20;;;;;;;25.67;46.52;101019.34;5062616;28;20037;-94
2023/06/09 09:09:30;;;;;;;5.07;3.80;;;;;;;25.84;45.51;101025.50;5069005;28;20025;-89
2023/06/09 09:11:59;;;;;;;5.60;3.97;;;;;;;25.82;46.04;100990.41;5061463;28;20040;-85
2023/06/09 09:14:25;;;;;;;5.32;3.78;;;;;;;26.16;44.36;101010.63;5044418;28;20036;-91
2023/06/09 09:16:50;;;;;;;5.00;3.45;;;;;;;26.30;43.02;101009.94;5061884;28;20072;-88
2023/06/09 09:19:28;;;;;;;13.38;8.27;;;;;;;26.30;41.94;101015.22;5049388;28;20028;-94
2023/06/09 09:21:55;;;;;;;23.70;10.02;;;;;;;26.31;42.48;101008.94;5062841;28;20029;-90
2023/06/09 09:24:20;;;;;;;8.30;5.15;;;;;;;26.45;42.69;101012.72;5062101;28;20108;-85
2023/06/09 09:26:46;;;;;;;5.18;3.78;;;;;;;26.58;42.68;101010.41;5043528;28;20104;-88
2023/06/09 09:29:11;;;;;;;5.43;3.65;;;;;;;26.71;42.28;101012.50;5066130;28;20032;-92
2023/06/09 09:31:39;;;;;;;5.80;3.10;;;;;;;26.86;41.77;101016.13;5047468;28;20454;-89
2023/06/09 09:34:09;;;;;;;4.63;3.28;;;;;;;27.04;40.88;101019.41;5067899;28;20098;-91
2023/06/09 09:36:43;;;;;;;5.30;3.70;;;;;;;27.05;41.10;101014.91;5052402;28;20041;-89
2023/06/09 09:39:09;;;;;;;5.75;3.67;;;;;;;26.97;42.01;101002.47;5053926;28;20064;-91
2023/06/09 09:41:34;;;;;;;5.65;3.50;;;;;;;27.18;42.09;100999.25;5063292;28;20029;-91
2023/06/09 09:43:59;;;;;;;4.15;3.40;;;;;;;27.22;41.99;101008.50;5046804;28;20038;-90
2023/06/09 09:46:25;;;;;;;5.07;3.65;;;;;;;27.21;41.94;100990.09;5065746;28;20051;-90
2023/06/09 09:48:51;;;;;;;6.32;3.53;;;;;;;27.28;41.17;100999.03;5064111;28;20036;-87
2023/06/09 09:51:20;;;;;;;6.03;3.70;;;;;;;27.32;41.50;101000.31;5048342;28;20557;-89
2023/06/09 09:53:45;;;;;;;7.28;4.68;;;;;;;27.30;41.25;100997.84;5048897;28;20032;-93
2023/06/09 09:56:11;;;;;;;7.82;4.30;;;;;;;27.44;41.64;100999.75;5049940;28;20029;-93
2023/06/09 09:58:37;;;;;;;5.70;3.22;;;;;;;27.54;40.73;101002.19;5066367;28;20136;-87
2023/06/09 10:01:03;;;;;;;4.57;3.67;;;;;;;27.41;40.83;100993.97;5052282;28;20099;-86
2023/06/09 10:03:29;;;;;;;5.32;2.85;;;;;;;27.52;40.37;101001.53;5049501;28;20029;-89
2023/06/09 10:05:55;;;;;;;10.73;3.35;;;;;;;27.57;40.13;100993.84;5049943;28;20532;-85
2023/06/09 10:08:31;;;;;;;5.47;3.45;;;;;;;27.86;41.00;101002.97;5049210;28;20414;-88
2023/06/09 10:10:57;;;;;;;4.40;3.30;;;;;;;28.10;39.80;101001.94;5046909;28;20052;-91
2023/06/09 10:13:25;;;;;;;4.75;3.15;;;;;;;28.15;39.67;100997.75;5048100;28;20299;-90
2023/06/09 10:15:51;;;;;;;7.40;3.40;;;;;;;28.04;39.95;100987.53;5056822;28;20060;-89
2023/06/09 10:18:17;;;;;;;4.88;3.05;;;;;;;28.11;40.60;100987.63;5049848;28;20029;-91
2023/06/09 10:20:43;;;;;;;4.25;3.30;;;;;;;28.29;40.11;100988.16;5049925;28;20483;-90
2023/06/09 10:23:08;;;;;;;6.88;3.38;;;;;;;28.41;39.62;100976.03;5050372;28;20062;-92
2023/06/09 10:25:34;;;;;;;5.25;3.50;;;;;;;28.46;39.90;100981.66;5047155;28;20021;-91
2023/06/09 10:27:59;;;;;;;6.55;3.40;;;;;;;28.52;39.50;100980.94;5065110;28;20869;-92
2023/06/09 10:30:25;;;;;;;6.03;3.50;;;;;;;28.57;39.77;100967.06;5020615;28;20118;-91
2023/06/09 10:33:05;;;;;;;4.18;3.40;;;;;;;28.79;38.88;100979.41;5066369;28;20035;-93
2023/06/09 10:35:31;;;;;;;4.95;3.60;;;;;;;28.93;38.35;100974.31;5054892;28;20036;-90
2023/06/09 10:37:58;;;;;;;4.20;3.35;;;;;;;28.96;38.61;100947.31;5049569;28;20048;-89
2023/06/09 10:40:30;;;;;;;4.80;3.30;;;;;;;29.22;38.76;100968.91;5066605;28;20097;-87
2023/06/09 10:42:59;;;;;;;3.92;3.08;;;;;;;29.34;38.48;100967.41;5049283;28;20028;-86
2023/06/09 10:45:24;;;;;;;6.20;3.50;;;;;;;29.33;38.18;100955.09;5049715;28;20024;-88
2023/06/09 10:47:50;;;;;;;4.18;3.28;;;;;;;29.43;37.74;100954.78;5044725;28;20526;-87
2023/06/09 10:50:26;;;;;;;5.30;3.40;;;;;;;29.65;37.47;100952.94;5048655;28;20052;-88
2023/06/09 10:52:53;;;;;;;4.45;3.35;;;;;;;29.76;36.16;100955.09;5066524;28;20040;-93
2023/06/09 10:55:21;;;;;;;9.13;3.75;;;;;;;29.75;36.52;100937.44;5049977;28;20044;-93
2023/06/09 10:57:46;;;;;;;6.38;3.85;;;;;;;29.86;37.18;100944.09;5040797;28;20644;-90
2023/06/09 11:00:13;;;;;;;4.93;3.63;;;;;;;30.11;37.42;100947.19;5046047;28;20602;-90
2023/06/09 11:02:46;;;;;;;5.93;4.10;;;;;;;30.18;36.33;100948.03;5045280;28;20025;-89
2023/06/09 11:05:11;;;;;;;5.65;3.72;;;;;;;30.20;36.06;100946.03;5048030;28;20029;-91
2023/06/09 11:07:47;;;;;;;6.68;3.88;;;;;;;30.09;35.77;100938.53;5031428;28;20087;-93
2023/06/09 11:10:12;;;;;;;7.70;3.47;;;;;;;30.06;36.50;100929.06;5048311;28;20491;-93
2023/06/09 11:12:38;;;;;;;6.45;3.30;;;;;;;30.19;35.79;100942.53;5031564;28;20132;-93
2023/06/09 11:15:07;;;;;;;6.10;3.60;;;;;;;30.03;35.45;100928.63;5046345;28;20033;-91
2023/06/09 11:17:33;;;;;;;3.83;3.22;;;;;;;29.73;36.03;100914.66;5030344;28;20029;-92
2023/06/09 11:20:23;;;;;;;5.22;3.72;;;;;;;29.70;35.66;100897.22;5034698;28;20049;-94
2023/06/09 11:22:48;;;;;;;4.55;2.95;;;;;;;29.87;35.02;100914.56;5043460;28;20094;-92